sensor_id;sensor_type;location;lat;lon;timestamp;pressure;altitude;pressure_sealevel;temperature;humidity
12987;BME280;58897;51.960;5.582;2023-04-25T00:01:54;100791.06;;;6.51;100.00
12987;BME280;58897;51.960;5.582;2023-04-25T00:04:20;100780.06;;;6.54;100.00
12987;BME280;58897;51.960;5.582;2023-04-25T00:06:48;100783.13;;;6.50;100.00
12987;BME280;58897;51.960;5.582;2023-04-25T00:09:14;100794.13;;;6.47;100.00
12987;BME280;58897;51.960;5.582;2023-04-25T00:11:41;100791.91;;;6.61;100.00
12987;BME280;58897;51.960;5.582;2023-04-25T00:14:08;100799.28;;;6.59;100.00
12987;BME280;58897;51.960;5.582;2023-04-25T00:16:34;100794.88;;;6.58;100.00
12987;BME280;58897;51.960;5.582;2023-04-25T00:19:02;100793.00;;;6.49;100.00
12987;BME280;58897;51.960;5.582;2023-04-25T00:21:29;100798.94;;;6.43;100.00
12987;BME280;58897;51.960;5.582;2023-04-25T00:23:57;100801.75;;;6.42;100.00
12987;BME280;58897;51.960;5.582;2023-04-25T00:26:24;100806.44;;;6.49;100.00
12987;BME280;58897;51.960;5.582;2023-04-25T00:28:51;100806.13;;;6.43;100.00
12987;BME280;58897;51.960;5.582;2023-04-25T00:31:17;100807.56;;;6.47;100.00
12987;BME280;58897;51.960;5.582;2023-04-25T00:33:44;100813.91;;;6.46;100.00
12987;BME280;58897;51.960;5.582;2023-04-25T00:36:10;100807.53;;;6.37;100.00
12987;BME280;58897;51.960;5.582;2023-04-25T00:38:37;100818.97;;;6.39;100.00
12987;BME280;58897;51.960;5.582;2023-04-25T00:41:06;100808.94;;;6.32;100.00
12987;BME280;58897;51.960;5.582;2023-04-25T00:43:32;100809.94;;;6.31;100.00
12987;BME280;58897;51.960;5.582;2023-04-25T00:46:00;100811.88;;;6.29;100.00
12987;BME280;58897;51.960;5.582;2023-04-25T00:48:27;100816.72;;;6.35;100.00
12987;BME280;58897;51.960;5.582;2023-04-25T00:50:56;100811.00;;;6.18;100.00
12987;BME280;58897;51.960;5.582;2023-04-25T00:53:24;100814.72;;;6.27;100.00
12987;BME280;58897;51.960;5.582;2023-04-25T00:55:52;100809.94;;;6.31;100.00
12987;BME280;58897;51.960;5.582;2023-04-25T00:58:20;100817.13;;;6.30;100.00
12987;BME280;58897;51.960;5.582;2023-04-25T01:00:48;100810.75;;;6.31;100.00
12987;BME280;58897;51.960;5.582;2023-04-25T01:03:16;100808.81;;;6.33;100.00
12987;BME280;58897;51.960;5.582;2023-04-25T01:05:43;100818.97;;;6.39;100.00
12987;BME280;58897;51.960;5.582;2023-04-25T01:08:10;100815.31;;;6.50;100.00
12987;BME280;58897;51.960;5.582;2023-04-25T01:10:36;100808.41;;;6.47;100.00
12987;BME280;58897;51.960;5.582;2023-04-25T01:13:03;100805.19;;;6.53;100.00
12987;BME280;58897;51.960;5.582;2023-04-25T01:15:29;100813.81;;;6.57;100.00
12987;BME280;58897;51.960;5.582;2023-04-25T01:17:57;100809.41;;;6.46;100.00
12987;BME280;58897;51.960;5.582;2023-04-25T01:20:24;100816.34;;;6.58;100.00
12987;BME280;58897;51.960;5.582;2023-04-25T01:22:52;100814.47;;;6.49;100.00
12987;BME280;58897;51.960;5.582;2023-04-25T01:25:19;100818.28;;;6.47;100.00
12987;BME280;58897;51.960;5.582;2023-04-25T01:27:46;100818.88;;;6.50;100.00
12987;BME280;58897;51.960;5.582;2023-04-25T01:30:13;100820.75;;;6.59;100.00
12987;BME280;58897;51.960;5.582;2023-04-25T01:32:41;100818.31;;;6.56;100.00
12987;BME280;58897;51.960;5.582;2023-04-25T01:35:10;100811.41;;;6.54;100.00
12987;BME280;58897;51.960;5.582;2023-04-25T01:37:41;100814.63;;;6.48;100.00
12987;BME280;58897;51.960;5.582;2023-04-25T01:40:10;100815.31;;;6.40;100.00
12987;BME280;58897;51.960;5.582;2023-04-25T01:42:40;100828.88;;;6.39;100.00
12987;BME280;58897;51.960;5.582;2023-04-25T01:45:08;100831.09;;;6.34;100.00
12987;BME280;58897;51.960;5.582;2023-04-25T01:47:35;100825.78;;;6.43;100.00
12987;BME280;58897;51.960;5.582;2023-04-25T01:50:05;100829.00;;;6.37;100.00
12987;BME280;58897;51.960;5.582;2023-04-25T01:52:32;100826.91;;;6.41;100.00
12987;BME280;58897;51.960;5.582;2023-04-25T01:55:02;100830.81;;;6.37;100.00
12987;BME280;58897;51.960;5.582;2023-04-25T01:57:29;100836.75;;;6.31;100.00
12987;BME280;58897;51.960;5.582;2023-04-25T01:59:59;100835.91;;;6.30;100.00
12987;BME280;58897;51.960;5.582;2023-04-25T02:02:25;100843.44;;;6.15;100.00
12987;BME280;58897;51.960;5.582;2023-04-25T02:04:52;100845.44;;;6.13;100.00
12987;BME280;58897;51.960;5.582;2023-04-25T02:07:20;100851.38;;;6.17;100.00
12987;BME280;58897;51.960;5.582;2023-04-25T02:09:47;100848.00;;;6.15;100.00
12987;BME280;58897;51.960;5.582;2023-04-25T02:12:13;100858.22;;;6.00;100.00
12987;BME280;58897;51.960;5.582;2023-04-25T02:14:40;100850.44;;;5.97;100.00
12987;BME280;58897;51.960;5.582;2023-04-25T02:17:06;100854.41;;;6.03;100.00
12987;BME280;58897;51.960;5.582;2023-04-25T02:19:33;100856.53;;;5.99;100.00
12987;BME280;58897;51.960;5.582;2023-04-25T02:22:00;100853.66;;;5.91;100.00
12987;BME280;58897;51.960;5.582;2023-04-25T02:24:27;100857.16;;;5.92;100.00
12987;BME280;58897;51.960;5.582;2023-04-25T02:26:54;100856.25;;;5.82;100.00
12987;BME280;58897;51.960;5.582;2023-04-25T02:29:22;100858.09;;;5.81;100.00
12987;BME280;58897;51.960;5.582;2023-04-25T02:31:49;100860.25;;;5.87;100.00
12987;BME280;58897;51.960;5.582;2023-04-25T02:34:16;100866.25;;;5.80;100.00
12987;BME280;58897;51.960;5.582;2023-04-25T02:36:42;100872.41;;;5.71;100.00
12987;BME280;58897;51.960;5.582;2023-04-25T02:39:09;100867.56;;;5.65;100.00
12987;BME280;58897;51.960;5.582;2023-04-25T02:41:36;100876.78;;;5.72;100.00
12987;BME280;58897;51.960;5.582;2023-04-25T02:44:03;100873.91;;;5.63;100.00
12987;BME280;58897;51.960;5.582;2023-04-25T02:46:29;100884.09;;;5.49;100.00
12987;BME280;58897;51.960;5.582;2023-04-25T02:49:05;100879.47;;;5.51;100.00
12987;BME280;58897;51.960;5.582;2023-04-25T02:51:32;100881.56;;;5.47;100.00
12987;BME280;58897;51.960;5.582;2023-04-25T02:53:58;100879.78;;;5.37;100.00
12987;BME280;58897;51.960;5.582;2023-04-25T02:56:25;100879.00;;;5.46;100.00
12987;BME280;58897;51.960;5.582;2023-04-25T02:58:53;100870.66;;;5.39;100.00
12987;BME280;58897;51.960;5.582;2023-04-25T03:01:20;100877.84;;;5.39;100.00
12987;BME280;58897;51.960;5.582;2023-04-25T03:03:46;100871.63;;;5.38;100.00
12987;BME280;58897;51.960;5.582;2023-04-25T03:06:13;100867.63;;;5.33;100.00
12987;BME280;58897;51.960;5.582;2023-04-25T03:08:41;100879.38;;;5.21;100.00
12987;BME280;58897;51.960;5.582;2023-04-25T03:11:07;100887.66;;;5.18;100.00
12987;BME280;58897;51.960;5.582;2023-04-25T03:13:34;100879.22;;;5.22;100.00
12987;BME280;58897;51.960;5.582;2023-04-25T03:16:00;100880.09;;;5.23;100.00
12987;BME280;58897;51.960;5.582;2023-04-25T03:18:27;100878.00;;;5.26;100.00
12987;BME280;58897;51.960;5.582;2023-04-25T03:20:54;100882.59;;;5.35;100.00
12987;BME280;58897;51.960;5.582;2023-04-25T03:23:20;100888.09;;;5.34;100.00
12987;BME280;58897;51.960;5.582;2023-04-25T03:25:47;100894.81;;;5.28;100.00
12987;BME280;58897;51.960;5.582;2023-04-25T03:28:14;100894.56;;;5.31;100.00
12987;BME280;58897;51.960;5.582;2023-04-25T03:30:41;100895.59;;;5.40;100.00
12987;BME280;58897;51.960;5.582;2023-04-25T03:33:07;100884.19;;;5.27;100.00
12987;BME280;58897;51.960;5.582;2023-04-25T03:35:33;100885.00;;;5.38;100.00
12987;BME280;58897;51.960;5.582;2023-04-25T03:38:00;100889.06;;;5.53;100.00
12987;BME280;58897;51.960;5.582;2023-04-25T03:40:26;100891.72;;;5.33;100.00
12987;BME280;58897;51.960;5.582;2023-04-25T03:42:53;100896.03;;;5.45;100.00
12987;BME280;58897;51.960;5.582;2023-04-25T03:45:19;100902.63;;;5.52;100.00
12987;BME280;58897;51.960;5.582;2023-04-25T03:47:46;100896.41;;;5.51;100.00
12987;BME280;58897;51.960;5.582;2023-04-25T03:50:13;100899.31;;;5.48;100.00
12987;BME280;58897;51.960;5.582;2023-04-25T03:52:39;100899.53;;;5.56;100.00
12987;BME280;58897;51.960;5.582;2023-04-25T03:55:06;100896.84;;;5.56;100.00
12987;BME280;58897;51.960;5.582;2023-04-25T03:57:32;100896.34;;;5.42;100.00
12987;BME280;58897;51.960;5.582;2023-04-25T03:59:59;100898.47;;;5.48;100.00
12987;BME280;58897;51.960;5.582;2023-04-25T04:02:25;100902.50;;;5.42;100.00
12987;BME280;58897;51.960;5.582;2023-04-25T04:04:52;100902.34;;;5.34;100.00
12987;BME280;58897;51.960;5.582;2023-04-25T04:07:19;100905.00;;;5.34;100.00
12987;BME280;58897;51.960;5.582;2023-04-25T04:09:46;100904.56;;;5.50;100.00
12987;BME280;58897;51.960;5.582;2023-04-25T04:12:13;100915.41;;;5.69;100.00
12987;BME280;58897;51.960;5.582;2023-04-25T04:14:39;100914.34;;;5.60;100.00
12987;BME280;58897;51.960;5.582;2023-04-25T04:17:06;100908.88;;;5.62;100.00
12987;BME280;58897;51.960;5.582;2023-04-25T04:19:33;100918.75;;;5.61;100.00
12987;BME280;58897;51.960;5.582;2023-04-25T04:21:59;100913.19;;;5.74;100.00
12987;BME280;58897;51.960;5.582;2023-04-25T04:24:26;100911.06;;;5.68;100.00
12987;BME280;58897;51.960;5.582;2023-04-25T04:26:52;100920.00;;;5.57;100.00
12987;BME280;58897;51.960;5.582;2023-04-25T04:29:19;100919.72;;;5.60;100.00
12987;BME280;58897;51.960;5.582;2023-04-25T04:31:48;100918.34;;;5.66;100.00
12987;BME280;58897;51.960;5.582;2023-04-25T04:34:18;100919.34;;;5.44;100.00
12987;BME280;58897;51.960;5.582;2023-04-25T04:36:45;100927.03;;;5.58;100.00
12987;BME280;58897;51.960;5.582;2023-04-25T04:39:13;100919.72;;;5.60;100.00
12987;BME280;58897;51.960;5.582;2023-04-25T04:41:39;100933.06;;;5.72;100.00
12987;BME280;58897;51.960;5.582;2023-04-25T04:44:06;100936.94;;;5.79;100.00
12987;BME280;58897;51.960;5.582;2023-04-25T04:46:35;100936.31;;;5.86;100.00
12987;BME280;58897;51.960;5.582;2023-04-25T04:49:10;100938.22;;;5.84;100.00
12987;BME280;58897;51.960;5.582;2023-04-25T04:51:37;100927.88;;;5.91;100.00
12987;BME280;58897;51.960;5.582;2023-04-25T04:54:04;100932.38;;;5.90;100.00
12987;BME280;58897;51.960;5.582;2023-04-25T04:56:31;100934.00;;;6.02;100.00
12987;BME280;58897;51.960;5.582;2023-04-25T04:58:58;100934.59;;;6.06;100.00
12987;BME280;58897;51.960;5.582;2023-04-25T05:01:25;100933.28;;;6.00;100.00
12987;BME280;58897;51.960;5.582;2023-04-25T05:03:52;100936.56;;;5.83;100.00
12987;BME280;58897;51.960;5.582;2023-04-25T05:06:20;100948.16;;;6.04;100.00
12987;BME280;58897;51.960;5.582;2023-04-25T05:08:46;100953.72;;;6.12;100.00
12987;BME280;58897;51.960;5.582;2023-04-25T05:11:13;100950.22;;;6.21;100.00
12987;BME280;58897;51.960;5.582;2023-04-25T05:13:39;100957.09;;;6.14;100.00
12987;BME280;58897;51.960;5.582;2023-04-25T05:16:06;100951.34;;;6.19;100.00
12987;BME280;58897;51.960;5.582;2023-04-25T05:18:32;100953.44;;;6.15;100.00
12987;BME280;58897;51.960;5.582;2023-04-25T05:20:59;100959.25;;;6.20;100.00
12987;BME280;58897;51.960;5.582;2023-04-25T05:23:25;100963.13;;;6.28;100.00
12987;BME280;58897;51.960;5.582;2023-04-25T05:25:54;100958.06;;;6.34;100.00
12987;BME280;58897;51.960;5.582;2023-04-25T05:28:20;100960.06;;;6.42;100.00
12987;BME280;58897;51.960;5.582;2023-04-25T05:30:47;100960.25;;;6.50;100.00
12987;BME280;58897;51.960;5.582;2023-04-25T05:33:14;100960.94;;;6.42;100.00
12987;BME280;58897;51.960;5.582;2023-04-25T05:35:41;100959.94;;;6.43;100.00
12987;BME280;58897;51.960;5.582;2023-04-25T05:38:07;100971.81;;;6.41;100.00
12987;BME280;58897;51.960;5.582;2023-04-25T05:40:34;100966.06;;;6.55;100.00
12987;BME280;58897;51.960;5.582;2023-04-25T05:43:01;100973.28;;;6.54;100.00
12987;BME280;58897;51.960;5.582;2023-04-25T05:45:27;100982.34;;;6.63;100.00
12987;BME280;58897;51.960;5.582;2023-04-25T05:47:54;100978.81;;;6.62;100.00
12987;BME280;58897;51.960;5.582;2023-04-25T05:50:21;100971.69;;;6.82;100.00
12987;BME280;58897;51.960;5.582;2023-04-25T05:52:47;100977.50;;;6.87;100.00
12987;BME280;58897;51.960;5.582;2023-04-25T05:55:14;100978.31;;;6.78;100.00
12987;BME280;58897;51.960;5.582;2023-04-25T05:57:41;100983.06;;;6.65;100.00
12987;BME280;58897;51.960;5.582;2023-04-25T06:00:09;100996.63;;;6.63;100.00
12987;BME280;58897;51.960;5.582;2023-04-25T06:02:36;100986.50;;;6.76;100.00
12987;BME280;58897;51.960;5.582;2023-04-25T06:05:02;100993.53;;;6.98;100.00
12987;BME280;58897;51.960;5.582;2023-04-25T06:07:30;100990.84;;;6.98;100.00
12987;BME280;58897;51.960;5.582;2023-04-25T06:09:57;100986.19;;;7.10;100.00
12987;BME280;58897;51.960;5.582;2023-04-25T06:12:23;100988.91;;;7.19;100.00
12987;BME280;58897;51.960;5.582;2023-04-25T06:14:50;100999.78;;;7.18;100.00
12987;BME280;58897;51.960;5.582;2023-04-25T06:17:17;100998.97;;;7.27;100.00
12987;BME280;58897;51.960;5.582;2023-04-25T06:19:43;100997.56;;;7.42;100.00
12987;BME280;58897;51.960;5.582;2023-04-25T06:22:10;100999.13;;;7.44;100.00
12987;BME280;58897;51.960;5.582;2023-04-25T06:24:36;100997.47;;;7.63;100.00
12987;BME280;58897;51.960;5.582;2023-04-25T06:27:03;101008.06;;;7.83;100.00
12987;BME280;58897;51.960;5.582;2023-04-25T06:29:29;101009.94;;;7.92;100.00
12987;BME280;58897;51.960;5.582;2023-04-25T06:31:56;101005.25;;;7.94;100.00
12987;BME280;58897;51.960;5.582;2023-04-25T06:34:23;101004.94;;;8.07;100.00
12987;BME280;58897;51.960;5.582;2023-04-25T06:36:50;100998.28;;;8.21;100.00
12987;BME280;58897;51.960;5.582;2023-04-25T06:39:16;101005.91;;;8.25;100.00
12987;BME280;58897;51.960;5.582;2023-04-25T06:41:43;101010.06;;;8.10;100.00
12987;BME280;58897;51.960;5.582;2023-04-25T06:44:09;101010.59;;;8.14;100.00
12987;BME280;58897;51.960;5.582;2023-04-25T06:46:36;101009.22;;;8.29;100.00
12987;BME280;58897;51.960;5.582;2023-04-25T06:49:03;101008.59;;;8.25;100.00
12987;BME280;58897;51.960;5.582;2023-04-25T06:51:30;101018.53;;;8.34;100.00
12987;BME280;58897;51.960;5.582;2023-04-25T06:53:57;101023.06;;;8.43;100.00
12987;BME280;58897;51.960;5.582;2023-04-25T06:56:24;101023.03;;;8.53;100.00
12987;BME280;58897;51.960;5.582;2023-04-25T06:58:50;101023.84;;;8.63;100.00
12987;BME280;58897;51.960;5.582;2023-04-25T07:01:17;101025.00;;;8.97;100.00
12987;BME280;58897;51.960;5.582;2023-04-25T07:03:44;101024.59;;;8.92;100.00
12987;BME280;58897;51.960;5.582;2023-04-25T07:06:11;101038.28;;;8.72;100.00
12987;BME280;58897;51.960;5.582;2023-04-25T07:08:38;101041.25;;;8.68;100.00
12987;BME280;58897;51.960;5.582;2023-04-25T07:11:04;101039.72;;;8.66;100.00
12987;BME280;58897;51.960;5.582;2023-04-25T07:13:31;101037.13;;;8.84;100.00
12987;BME280;58897;51.960;5.582;2023-04-25T07:15:57;101038.00;;;9.11;100.00
12987;BME280;58897;51.960;5.582;2023-04-25T07:18:24;101041.63;;;9.65;100.00
12987;BME280;58897;51.960;5.582;2023-04-25T07:20:50;101046.97;;;9.57;100.00
12987;BME280;58897;51.960;5.582;2023-04-25T07:23:17;101045.75;;;10.04;100.00
12987;BME280;58897;51.960;5.582;2023-04-25T07:25:43;101052.44;;;10.53;100.00
12987;BME280;58897;51.960;5.582;2023-04-25T07:28:10;101048.69;;;10.97;100.00
12987;BME280;58897;51.960;5.582;2023-04-25T07:30:36;101046.19;;;11.12;100.00
12987;BME280;58897;51.960;5.582;2023-04-25T07:33:03;101054.34;;;10.61;100.00
12987;BME280;58897;51.960;5.582;2023-04-25T07:35:30;101053.13;;;11.14;100.00
12987;BME280;58897;51.960;5.582;2023-04-25T07:37:57;101051.69;;;11.70;100.00
12987;BME280;58897;51.960;5.582;2023-04-25T07:40:23;101060.22;;;12.64;100.00
12987;BME280;58897;51.960;5.582;2023-04-25T07:42:50;101064.22;;;11.37;100.00
12987;BME280;58897;51.960;5.582;2023-04-25T07:45:16;101066.94;;;11.37;100.00
12987;BME280;58897;51.960;5.582;2023-04-25T07:47:43;101068.16;;;11.51;100.00
12987;BME280;58897;51.960;5.582;2023-04-25T07:50:09;101072.78;;;11.66;100.00
12987;BME280;58897;51.960;5.582;2023-04-25T07:52:37;101073.44;;;12.59;100.00
12987;BME280;58897;51.960;5.582;2023-04-25T07:55:04;101070.38;;;12.13;100.00
12987;BME280;58897;51.960;5.582;2023-04-25T07:57:30;101078.97;;;12.89;100.00
12987;BME280;58897;51.960;5.582;2023-04-25T07:59:57;101084.09;;;12.60;100.00
12987;BME280;58897;51.960;5.582;2023-04-25T08:02:24;101085.22;;;13.06;100.00
12987;BME280;58897;51.960;5.582;2023-04-25T08:04:52;101085.63;;;13.81;100.00
12987;BME280;58897;51.960;5.582;2023-04-25T08:07:19;101080.91;;;13.36;96.69
12987;BME280;58897;51.960;5.582;2023-04-25T08:09:45;101074.41;;;14.29;97.89
12987;BME280;58897;51.960;5.582;2023-04-25T08:12:12;101072.78;;;15.47;92.11
12987;BME280;58897;51.960;5.582;2023-04-25T08:14:39;101078.00;;;16.13;88.48
12987;BME280;58897;51.960;5.582;2023-04-25T08:17:06;101075.22;;;15.56;88.49
12987;BME280;58897;51.960;5.582;2023-04-25T08:19:32;101081.88;;;14.12;97.82
12987;BME280;58897;51.960;5.582;2023-04-25T08:21:59;101098.44;;;13.17;100.00
12987;BME280;58897;51.960;5.582;2023-04-25T08:24:25;101096.50;;;13.42;100.00
12987;BME280;58897;51.960;5.582;2023-04-25T08:26:52;101101.94;;;13.34;100.00
12987;BME280;58897;51.960;5.582;2023-04-25T08:29:18;101111.38;;;12.43;100.00
12987;BME280;58897;51.960;5.582;2023-04-25T08:31:45;101112.06;;;12.61;100.00
12987;BME280;58897;51.960;5.582;2023-04-25T08:34:12;101111.16;;;13.63;96.65
12987;BME280;58897;51.960;5.582;2023-04-25T08:36:38;101113.78;;;13.80;98.11
12987;BME280;58897;51.960;5.582;2023-04-25T08:39:05;101125.81;;;13.85;92.17
12987;BME280;58897;51.960;5.582;2023-04-25T08:41:33;101122.25;;;14.15;91.08
12987;BME280;58897;51.960;5.582;2023-04-25T08:44:00;101126.00;;;15.34;84.15
12987;BME280;58897;51.960;5.582;2023-04-25T08:46:30;101117.53;;;16.45;76.86
12987;BME280;58897;51.960;5.582;2023-04-25T08:49:00;101128.00;;;15.55;76.43
12987;BME280;58897;51.960;5.582;2023-04-25T08:51:33;101125.00;;;16.36;76.49
12987;BME280;58897;51.960;5.582;2023-04-25T08:54:08;101122.16;;;15.58;80.26
12987;BME280;58897;51.960;5.582;2023-04-25T08:56:57;101135.84;;;13.77;88.45
12987;BME280;58897;51.960;5.582;2023-04-25T08:59:28;101147.63;;;13.61;93.53
12987;BME280;58897;51.960;5.582;2023-04-25T09:01:54;101144.03;;;14.07;91.04
12987;BME280;58897;51.960;5.582;2023-04-25T09:04:21;101150.63;;;14.66;84.76
12987;BME280;58897;51.960;5.582;2023-04-25T09:06:48;101149.81;;;14.35;90.01
12987;BME280;58897;51.960;5.582;2023-04-25T09:09:14;101159.13;;;13.00;100.00
12987;BME280;58897;51.960;5.582;2023-04-25T09:11:41;101167.56;;;12.32;99.93
12987;BME280;58897;51.960;5.582;2023-04-25T09:14:15;101176.19;;;12.36;96.58
12987;BME280;58897;51.960;5.582;2023-04-25T09:22:07;101198.13;;;13.07;92.29
12987;BME280;58897;51.960;5.582;2023-04-25T09:24:44;101194.59;;;14.08;90.64
12987;BME280;58897;51.960;5.582;2023-04-25T09:27:20;101193.63;;;13.54;80.39
12987;BME280;58897;51.960;5.582;2023-04-25T09:29:57;101199.06;;;14.01;83.00
12987;BME280;58897;51.960;5.582;2023-04-25T09:32:25;101197.56;;;14.30;86.10
12987;BME280;58897;51.960;5.582;2023-04-25T09:34:53;101206.34;;;13.62;87.99
12987;BME280;58897;51.960;5.582;2023-04-25T09:37:22;101193.63;;;13.54;86.06
12987;BME280;58897;51.960;5.582;2023-04-25T09:39:54;101211.47;;;13.41;88.27
12987;BME280;58897;51.960;5.582;2023-04-25T09:42:27;101202.84;;;12.97;79.17
12987;BME280;58897;51.960;5.582;2023-04-25T09:44:56;101210.44;;;13.58;79.04
12987;BME280;58897;51.960;5.582;2023-04-25T09:47:24;101210.31;;;13.27;75.00
12987;BME280;58897;51.960;5.582;2023-04-25T09:49:52;101205.91;;;14.59;69.45
12987;BME280;58897;51.960;5.582;2023-04-25T09:52:21;101200.41;;;16.29;58.00
12987;BME280;58897;51.960;5.582;2023-04-25T09:54:51;101205.66;;;16.31;52.98
12987;BME280;58897;51.960;5.582;2023-04-25T09:57:20;101212.03;;;15.21;57.40
12987;BME280;58897;51.960;5.582;2023-04-25T10:02:18;101215.03;;;13.49;73.33
12987;BME280;58897;51.960;5.582;2023-04-25T10:04:54;101225.06;;;12.84;83.99
12987;BME280;58897;51.960;5.582;2023-04-25T10:07:24;101226.56;;;12.71;88.16
12987;BME280;58897;51.960;5.582;2023-04-25T10:10:01;101232.22;;;12.19;92.35
12987;BME280;58897;51.960;5.582;2023-04-25T10:12:30;101238.44;;;12.12;99.45
12987;BME280;58897;51.960;5.582;2023-04-25T10:15:00;101228.19;;;12.39;100.00
12987;BME280;58897;51.960;5.582;2023-04-25T10:17:27;101234.44;;;12.32;100.00
12987;BME280;58897;51.960;5.582;2023-04-25T10:19:54;101230.78;;;12.57;100.00
12987;BME280;58897;51.960;5.582;2023-04-25T10:22:36;101239.72;;;12.42;100.00
12987;BME280;58897;51.960;5.582;2023-04-25T10:25:04;101246.59;;;12.20;100.00
12987;BME280;58897;51.960;5.582;2023-04-25T10:27:31;101235.41;;;12.23;100.00
12987;BME280;58897;51.960;5.582;2023-04-25T10:30:13;101250.56;;;12.00;100.00
12987;BME280;58897;51.960;5.582;2023-04-25T10:32:43;101247.22;;;11.72;100.00
12987;BME280;58897;51.960;5.582;2023-04-25T10:37:37;101252.69;;;11.54;100.00
12987;BME280;58897;51.960;5.582;2023-04-25T10:40:09;101250.25;;;12.03;100.00
12987;BME280;58897;51.960;5.582;2023-04-25T10:42:36;101238.44;;;12.62;100.00
12987;BME280;58897;51.960;5.582;2023-04-25T10:45:05;101244.31;;;13.78;98.55
12987;BME280;58897;51.960;5.582;2023-04-25T10:47:36;101247.63;;;13.96;97.65
12987;BME280;58897;51.960;5.582;2023-04-25T10:50:07;101253.66;;;15.07;90.03
12987;BME280;58897;51.960;5.582;2023-04-25T10:52:34;101247.81;;;15.32;68.00
12987;BME280;58897;51.960;5.582;2023-04-25T10:55:03;101250.31;;;15.19;73.59
12987;BME280;58897;51.960;5.582;2023-04-25T10:57:31;101250.22;;;14.90;76.87
12987;BME280;58897;51.960;5.582;2023-04-25T11:02:51;101250.06;;;14.61;78.14
12987;BME280;58897;51.960;5.582;2023-04-25T11:05:26;101251.91;;;14.38;78.25
12987;BME280;58897;51.960;5.582;2023-04-25T11:07:56;101264.63;;;14.29;78.22
12987;BME280;58897;51.960;5.582;2023-04-25T11:10:31;101259.81;;;14.47;77.54
12987;BME280;58897;51.960;5.582;2023-04-25T11:12:58;101260.13;;;14.13;81.23
12987;BME280;58897;51.960;5.582;2023-04-25T11:15:25;101254.13;;;14.65;82.54
12987;BME280;58897;51.960;5.582;2023-04-25T11:17:52;101252.75;;;14.30;79.90
12987;BME280;58897;51.960;5.582;2023-04-25T11:20:20;101252.41;;;14.41;81.75
12987;BME280;58897;51.960;5.582;2023-04-25T11:22:47;101247.38;;;14.14;73.01
12987;BME280;58897;51.960;5.582;2023-04-25T11:25:16;101259.06;;;14.61;71.82
12987;BME280;58897;51.960;5.582;2023-04-25T11:27:54;101251.25;;;14.58;72.73
12987;BME280;58897;51.960;5.582;2023-04-25T11:30:21;101247.31;;;14.38;70.84
12987;BME280;58897;51.960;5.582;2023-04-25T11:32:48;101257.50;;;14.44;73.06
12987;BME280;58897;51.960;5.582;2023-04-25T11:35:15;101257.72;;;14.88;72.64
12987;BME280;58897;51.960;5.582;2023-04-25T11:37:43;101269.00;;;14.07;64.86
12987;BME280;58897;51.960;5.582;2023-04-25T11:40:10;101264.69;;;13.66;65.62
12987;BME280;58897;51.960;5.582;2023-04-25T11:42:39;101264.47;;;13.92;76.51
12987;BME280;58897;51.960;5.582;2023-04-25T11:45:06;101256.59;;;14.52;71.66
12987;BME280;58897;51.960;5.582;2023-04-25T11:47:33;101266.38;;;14.22;70.31
12987;BME280;58897;51.960;5.582;2023-04-25T11:50:01;101268.47;;;14.12;74.08
12987;BME280;58897;51.960;5.582;2023-04-25T11:52:44;101274.41;;;14.15;73.11
12987;BME280;58897;51.960;5.582;2023-04-25T11:55:18;101276.31;;;13.99;85.30
12987;BME280;58897;51.960;5.582;2023-04-25T11:57:48;101283.75;;;13.26;89.65
12987;BME280;58897;51.960;5.582;2023-04-25T12:00:19;101285.91;;;13.63;98.99
12987;BME280;58897;51.960;5.582;2023-04-25T12:02:50;101283.66;;;15.36;87.32
12987;BME280;58897;51.960;5.582;2023-04-25T12:05:17;101286.81;;;15.99;78.68
12987;BME280;58897;51.960;5.582;2023-04-25T12:07:47;101283.59;;;15.81;77.41
12987;BME280;58897;51.960;5.582;2023-04-25T12:10:15;101294.44;;;14.14;84.96
12987;BME280;58897;51.960;5.582;2023-04-25T12:12:45;101305.06;;;13.77;93.45
12987;BME280;58897;51.960;5.582;2023-04-25T12:15:13;101301.03;;;13.41;95.83
12987;BME280;58897;51.960;5.582;2023-04-25T12:17:44;101296.56;;;13.72;96.13
12987;BME280;58897;51.960;5.582;2023-04-25T12:20:14;101302.41;;;14.16;91.87
12987;BME280;58897;51.960;5.582;2023-04-25T12:22:42;101302.41;;;14.16;82.76
12987;BME280;58897;51.960;5.582;2023-04-25T12:25:11;101298.72;;;14.78;76.76
12987;BME280;58897;51.960;5.582;2023-04-25T12:27:39;101303.53;;;14.68;66.92
12987;BME280;58897;51.960;5.582;2023-04-25T12:30:08;101300.47;;;14.71;67.00
12987;BME280;58897;51.960;5.582;2023-04-25T12:32:35;101301.34;;;14.95;68.22
12987;BME280;58897;51.960;5.582;2023-04-25T12:35:02;101300.69;;;15.38;66.72
12987;BME280;58897;51.960;5.582;2023-04-25T12:37:28;101302.75;;;15.88;57.37
12987;BME280;58897;51.960;5.582;2023-04-25T12:39:55;101282.69;;;17.04;64.54
12987;BME280;58897;51.960;5.582;2023-04-25T12:42:21;101293.00;;;17.72;59.30
12987;BME280;58897;51.960;5.582;2023-04-25T12:44:48;101287.19;;;17.88;55.27
12987;BME280;58897;51.960;5.582;2023-04-25T12:47:14;101292.50;;;17.20;52.76
12987;BME280;58897;51.960;5.582;2023-04-25T12:49:41;101303.91;;;15.93;56.87
12987;BME280;58897;51.960;5.582;2023-04-25T12:52:07;101299.53;;;15.32;62.99
12987;BME280;58897;51.960;5.582;2023-04-25T12:54:34;101316.44;;;14.44;73.33
12987;BME280;58897;51.960;5.582;2023-04-25T12:57:00;101330.00;;;13.89;78.25
12987;BME280;58897;51.960;5.582;2023-04-25T12:59:29;101324.53;;;14.05;79.65
12987;BME280;58897;51.960;5.582;2023-04-25T13:01:55;101327.72;;;14.08;75.09
12987;BME280;58897;51.960;5.582;2023-04-25T13:04:22;101316.69;;;14.18;74.80